createdAt,value
2023-03-01T00:01:27.922Z,97.77
2023-03-01T00:03:56.899Z,103.40
2023-03-01T00:06:25.339Z,94.57
2023-03-01T00:08:53.848Z,88.07
2023-03-01T00:11:24.260Z,81.10
2023-03-01T00:13:54.675Z,87.93
2023-03-01T00:16:26.508Z,99.70
2023-03-01T00:18:55.917Z,78.23
2023-03-01T00:21:25.216Z,77.47
2023-03-01T00:23:53.982Z,86.13
2023-03-01T00:26:24.393Z,121.63
2023-03-01T00:28:52.998Z,105.10
2023-03-01T00:31:23.349Z,109.97
2023-03-01T00:33:54.634Z,118.83
2023-03-01T00:36:22.975Z,124.57
2023-03-01T00:38:51.492Z,118.03
2023-03-01T00:41:20.846Z,98.77
2023-03-01T00:43:48.920Z,88.97
2023-03-01T00:46:18.843Z,75.43
2023-03-01T00:48:47.315Z,73.87
2023-03-01T00:51:18.229Z,70.57
2023-03-01T00:53:47.533Z,64.47
2023-03-01T00:56:16.784Z,70.70
2023-03-01T00:58:45.054Z,68.47
2023-03-01T01:01:19.303Z,69.13
2023-03-01T01:03:52.857Z,72.17
2023-03-01T01:06:24.897Z,66.97
2023-03-01T01:08:54.215Z,60.87
2023-03-01T01:11:24.024Z,68.23
2023-03-01T01:13:53.375Z,66.50
2023-03-01T01:16:22.886Z,68.80
2023-03-01T01:18:51.854Z,60.83
2023-03-01T01:21:23.831Z,73.40
2023-03-01T01:23:52.656Z,69.63
2023-03-01T01:26:22.683Z,73.90
2023-03-01T01:28:51.058Z,74.57
2023-03-01T01:31:19.833Z,58.43
2023-03-01T01:33:48.471Z,62.30
2023-03-01T01:36:16.578Z,60.37
2023-03-01T01:38:46.132Z,60.70
2023-03-01T01:41:15.114Z,56.67
2023-03-01T01:43:45.541Z,42.00
2023-03-01T01:46:24.149Z,64.83
2023-03-01T01:48:56.091Z,64.27
2023-03-01T01:51:28.005Z,64.90
2023-03-01T01:54:02.661Z,60.77
2023-03-01T01:56:32.355Z,66.97
2023-03-01T01:59:00.849Z,66.90
2023-03-01T02:01:29.157Z,59.23
2023-03-01T02:03:57.672Z,65.50
2023-03-01T02:06:30.872Z,56.90
2023-03-01T02:09:04.842Z,58.43
2023-03-01T02:11:34.960Z,53.73
2023-03-01T02:14:03.055Z,49.93
2023-03-01T02:16:32.598Z,47.60
2023-03-01T02:19:01.628Z,58.97
2023-03-01T02:21:40.577Z,49.27
2023-03-01T02:24:20.391Z,67.30
2023-03-01T02:26:54.553Z,59.37
2023-03-01T02:29:24.585Z,68.67
2023-03-01T02:31:53.925Z,63.30
2023-03-01T02:34:27.158Z,70.27
2023-03-01T02:36:59.444Z,58.00
2023-03-01T02:39:30.222Z,58.17
2023-03-01T02:42:00.020Z,59.60
2023-03-01T02:44:29.655Z,55.13
2023-03-01T02:47:00.477Z,67.93
2023-03-01T02:49:31.507Z,60.80
2023-03-01T02:52:30.546Z,50.27
2023-03-01T02:55:02.922Z,54.60
2023-03-01T02:57:33.567Z,49.17
2023-03-01T03:00:08.134Z,57.03
2023-03-01T03:02:40.271Z,58.17
2023-03-01T03:05:11.725Z,47.77
2023-03-01T03:07:41.751Z,57.93
2023-03-01T03:10:13.809Z,49.00
2023-03-01T03:12:42.796Z,50.63
2023-03-01T03:15:13.801Z,43.63
2023-03-01T03:17:45.369Z,47.77
2023-03-01T03:20:20.109Z,48.83
2023-03-01T03:22:50.098Z,51.97
2023-03-01T03:25:18.922Z,45.60
2023-03-01T03:27:48.705Z,53.10
2023-03-01T03:30:22.620Z,47.97
2023-03-01T03:32:53.918Z,50.80
2023-03-01T03:35:23.962Z,48.00
2023-03-01T03:38:04.019Z,51.40
2023-03-01T03:40:34.736Z,58.60
2023-03-01T03:43:03.556Z,52.93
2023-03-01T03:45:34.528Z,45.33
2023-03-01T03:48:03.469Z,47.63
2023-03-01T03:50:31.780Z,50.77
2023-03-01T03:53:00.159Z,49.47
2023-03-01T03:55:31.631Z,46.07
2023-03-01T03:58:03.247Z,58.73
2023-03-01T04:00:32.747Z,49.03
2023-03-01T04:03:01.769Z,50.73
2023-03-01T04:05:30.370Z,46.43
2023-03-01T04:08:07.947Z,47.73
2023-03-01T04:10:39.096Z,49.90
2023-03-01T04:13:07.850Z,49.97
2023-03-01T04:15:38.604Z,57.70
2023-03-01T04:18:07.388Z,57.37
2023-03-01T04:20:37.488Z,50.23
2023-03-01T04:23:14.595Z,54.40
2023-03-01T04:25:44.843Z,64.03
2023-03-01T04:28:13.268Z,82.93
2023-03-01T04:30:42.772Z,64.67
2023-03-01T04:33:12.908Z,73.97
2023-03-01T04:35:41.641Z,68.43
2023-03-01T04:38:10.684Z,57.73
2023-03-01T04:40:39.133Z,66.03
2023-03-01T04:43:07.418Z,72.80
2023-03-01T04:45:36.719Z,66.13
2023-03-01T04:48:06.774Z,57.10
2023-03-01T04:50:35.140Z,63.17
2023-03-01T04:53:03.458Z,70.23
2023-03-01T04:55:32.569Z,64.77
2023-03-01T04:58:01.051Z,64.73
2023-03-01T05:00:29.148Z,63.73
2023-03-01T05:02:59.002Z,58.80
2023-03-01T05:05:32.757Z,59.77
2023-03-01T05:08:02.594Z,65.37
2023-03-01T05:10:32.555Z,62.07
2023-03-01T05:13:01.814Z,56.33
2023-03-01T05:15:32.563Z,56.37
2023-03-01T05:18:02.367Z,61.50
2023-03-01T05:20:32.539Z,43.63
2023-03-01T05:23:06.302Z,45.87
2023-03-01T05:25:36.023Z,44.87
2023-03-01T05:28:05.584Z,44.43
2023-03-01T05:30:34.281Z,37.10
2023-03-01T05:33:03.254Z,44.37
2023-03-01T05:35:35.161Z,44.30
2023-03-01T05:38:03.257Z,41.27
2023-03-01T05:40:31.431Z,42.70
2023-03-01T05:42:59.599Z,32.47
2023-03-01T05:45:29.025Z,40.43
2023-03-01T05:47:57.295Z,38.77
2023-03-01T05:50:28.254Z,33.80
2023-03-01T05:53:02.627Z,35.30
2023-03-01T05:55:32.060Z,32.07
2023-03-01T05:58:01.188Z,32.57
2023-03-01T06:00:30.164Z,36.23
2023-03-01T06:02:59.477Z,32.57
2023-03-01T06:05:28.374Z,34.00
2023-03-01T06:07:56.942Z,32.73
2023-03-01T06:10:26.491Z,34.07
2023-03-01T06:12:55.281Z,35.87
2023-03-01T06:15:23.898Z,26.23
2023-03-01T06:17:52.523Z,28.13
2023-03-01T06:20:23.016Z,28.13
2023-03-01T06:22:51.782Z,25.37
2023-03-01T06:25:22.899Z,25.10
2023-03-01T06:27:53.293Z,27.93
2023-03-01T06:30:22.909Z,23.13
2023-03-01T06:32:51.387Z,26.23
2023-03-01T06:35:21.210Z,30.40
2023-03-01T06:37:50.260Z,26.50
2023-03-01T06:40:18.647Z,28.67
2023-03-01T06:42:52.399Z,33.43
2023-03-01T06:45:22.034Z,31.70
2023-03-01T06:47:50.430Z,28.63
2023-03-01T06:50:20.147Z,25.43
2023-03-01T06:55:16.686Z,28.17
2023-03-01T06:57:44.796Z,27.87
2023-03-01T07:00:16.632Z,29.20
2023-03-01T07:02:45.058Z,27.67
2023-03-01T07:05:13.181Z,25.90
2023-03-01T07:07:41.270Z,24.80
2023-03-01T07:10:10.905Z,21.50
2023-03-01T07:12:39.093Z,23.80
2023-03-01T07:15:10.465Z,20.13
2023-03-01T07:17:40.140Z,19.17
2023-03-01T07:20:08.848Z,23.37
2023-03-01T07:22:37.077Z,25.13
2023-03-01T07:25:05.468Z,20.83
2023-03-01T07:27:33.496Z,27.97
2023-03-01T07:30:01.495Z,23.47
2023-03-01T07:32:29.644Z,25.07
2023-03-01T07:34:59.253Z,20.13
2023-03-01T07:37:27.367Z,22.17
2023-03-01T07:39:55.766Z,23.67
2023-03-01T07:42:24.212Z,21.60
2023-03-01T07:44:52.433Z,24.50
2023-03-01T07:47:20.634Z,22.13
2023-03-01T07:49:49.048Z,26.27
2023-03-01T07:52:18.525Z,25.83
2023-03-01T07:54:46.667Z,22.63
2023-03-01T07:57:14.941Z,20.03
2023-03-01T07:59:42.993Z,26.83
2023-03-01T08:02:11.711Z,21.07
2023-03-01T08:04:40.068Z,24.50
2023-03-01T08:07:08.445Z,23.57
2023-03-01T08:09:38.820Z,21.00
2023-03-01T08:12:08.032Z,26.73
2023-03-01T08:14:36.272Z,20.23
2023-03-01T08:17:05.102Z,29.13
2023-03-01T08:19:34.224Z,19.90
2023-03-01T08:22:03.071Z,25.07
2023-03-01T08:24:31.285Z,21.37
2023-03-01T08:27:00.823Z,28.53
2023-03-01T08:29:29.235Z,19.00
2023-03-01T08:31:57.392Z,23.70
2023-03-01T08:34:25.554Z,23.53
2023-03-01T08:36:53.968Z,24.07
2023-03-01T08:39:23.826Z,27.40
2023-03-01T08:41:52.158Z,27.93
2023-03-01T08:44:22.068Z,20.67
2023-03-01T08:46:51.042Z,23.03
2023-03-01T08:49:20.891Z,26.63
2023-03-01T08:51:49.685Z,21.63
2023-03-01T08:54:20.202Z,21.60
2023-03-01T08:56:48.964Z,22.07
2023-03-01T08:59:20.365Z,26.47
2023-03-01T09:01:49.890Z,20.73
2023-03-01T09:04:18.203Z,22.30
2023-03-01T09:06:46.324Z,23.00
2023-03-01T09:09:17.477Z,20.20
2023-03-01T09:11:47.281Z,24.63
2023-03-01T09:14:16.031Z,19.53
2023-03-01T09:16:44.552Z,22.37
2023-03-01T09:19:14.381Z,22.57
2023-03-01T09:21:42.898Z,20.07
2023-03-01T09:24:16.848Z,18.13
2023-03-01T09:26:48.101Z,19.53
2023-03-01T09:29:17.618Z,22.73
2023-03-01T09:31:45.707Z,17.50
2023-03-01T09:34:17.144Z,20.13
2023-03-01T09:36:45.244Z,18.17
2023-03-01T09:39:13.331Z,15.87
2023-03-01T09:41:48.669Z,16.53
2023-03-01T09:44:35.088Z,16.63
2023-03-01T09:47:04.074Z,18.87
2023-03-01T09:49:37.177Z,20.20
2023-03-01T09:52:14.663Z,20.80
2023-03-01T09:54:42.786Z,15.03
2023-03-01T09:57:22.524Z,15.53
2023-03-01T10:00:32.394Z,16.83
2023-03-01T10:03:05.894Z,18.27
2023-03-01T10:05:53.416Z,17.23
2023-03-01T10:08:34.499Z,15.73
2023-03-01T10:11:02.963Z,16.97
2023-03-01T10:13:41.346Z,17.47
2023-03-01T10:16:15.572Z,13.50
2023-03-01T10:18:45.096Z,14.37
2023-03-01T10:21:18.898Z,15.13
2023-03-01T10:23:47.697Z,15.10
2023-03-01T10:26:37.489Z,16.40
2023-03-01T10:29:08.869Z,18.63
2023-03-01T10:31:44.131Z,14.23
2023-03-01T10:34:17.431Z,15.43
2023-03-01T10:36:50.367Z,15.90
2023-03-01T10:39:21.028Z,15.80
2023-03-01T10:41:59.140Z,15.07
2023-03-01T10:44:45.209Z,13.30
2023-03-01T10:47:25.764Z,14.23
2023-03-01T10:49:59.376Z,18.43
2023-03-01T10:52:32.378Z,16.70
2023-03-01T10:55:03.041Z,19.33
2023-03-01T10:57:40.028Z,19.03
2023-03-01T11:00:25.871Z,19.33
2023-03-01T11:03:12.435Z,21.80
2023-03-01T11:05:53.854Z,16.50
2023-03-01T11:08:43.669Z,16.07
2023-03-01T11:11:32.450Z,16.37
2023-03-01T11:14:03.166Z,16.70
2023-03-01T11:16:38.744Z,16.03
2023-03-01T11:19:20.947Z,17.13
2023-03-01T11:22:05.276Z,17.10
2023-03-01T11:24:42.336Z,13.67
2023-03-01T11:27:19.480Z,17.70
2023-03-01T11:29:52.181Z,11.50
2023-03-01T11:32:23.301Z,13.67
2023-03-01T11:34:56.802Z,14.43
2023-03-01T11:37:34.458Z,14.67
2023-03-01T11:40:13.079Z,17.97
2023-03-01T11:42:57.996Z,14.10
2023-03-01T11:45:29.181Z,12.47
2023-03-01T11:48:16.026Z,14.10
2023-03-01T11:50:48.502Z,12.90
2023-03-01T11:53:30.989Z,15.23
2023-03-01T11:56:14.136Z,13.63
2023-03-01T11:59:20.964Z,13.23
2023-03-01T12:02:09.137Z,12.40
2023-03-01T12:05:01.753Z,10.37
2023-03-01T12:07:41.079Z,16.67
2023-03-01T12:10:25.480Z,11.97
2023-03-01T12:13:22.216Z,13.73
2023-03-01T12:16:04.024Z,12.40
2023-03-01T12:18:56.729Z,14.87
2023-03-01T12:21:40.092Z,12.63
2023-03-01T12:24:50.079Z,15.37
2023-03-01T12:27:34.816Z,15.77
2023-03-01T12:30:19.137Z,23.27
2023-03-01T12:33:03.374Z,14.03
2023-03-01T12:35:47.495Z,12.73
2023-03-01T12:38:32.067Z,15.93
2023-03-01T12:41:18.112Z,15.20
2023-03-01T12:43:58.697Z,16.47
2023-03-01T12:46:46.653Z,12.43
2023-03-01T12:49:18.418Z,19.17
2023-03-01T12:51:53.458Z,15.13
2023-03-01T12:54:27.988Z,21.80
2023-03-01T12:56:57.315Z,18.23
2023-03-01T12:59:32.038Z,23.73
2023-03-01T13:02:07.781Z,18.30
2023-03-01T13:04:52.518Z,21.13
2023-03-01T13:07:29.874Z,15.23
2023-03-01T13:10:13.215Z,14.70
2023-03-01T13:12:52.178Z,12.37
2023-03-01T13:15:28.835Z,13.50
2023-03-01T13:17:59.876Z,23.80
2023-03-01T13:20:32.612Z,29.30
2023-03-01T13:23:13.429Z,16.60
2023-03-01T13:26:03.771Z,15.43
2023-03-01T13:28:43.001Z,12.20
2023-03-01T13:31:12.895Z,17.30
2023-03-01T13:33:47.996Z,12.33
2023-03-01T13:36:51.854Z,12.33
2023-03-01T13:39:33.543Z,15.73
2023-03-01T13:42:02.113Z,13.93
2023-03-01T13:44:34.704Z,13.30
2023-03-01T13:47:16.517Z,21.87
2023-03-01T13:49:51.115Z,13.70
2023-03-01T13:52:40.347Z,14.90
2023-03-01T13:55:19.332Z,13.60
2023-03-01T13:57:54.804Z,13.70
2023-03-01T14:00:35.016Z,13.93
2023-03-01T14:03:06.638Z,11.83
2023-03-01T14:05:37.161Z,13.40
2023-03-01T14:08:06.245Z,14.83
2023-03-01T14:10:42.580Z,14.77
2023-03-01T14:13:31.046Z,13.43
2023-03-01T14:16:13.944Z,12.00
2023-03-01T14:18:49.878Z,13.13
2023-03-01T14:21:19.719Z,13.57
2023-03-01T14:23:48.694Z,17.47
2023-03-01T14:26:23.791Z,14.97
2023-03-01T14:28:52.837Z,14.37
2023-03-01T14:31:52.570Z,11.67
2023-03-01T14:34:23.523Z,15.20
2023-03-01T14:36:53.099Z,12.17
2023-03-01T14:39:26.981Z,13.60
2023-03-01T14:41:56.279Z,14.67
2023-03-01T14:44:26.730Z,11.80
2023-03-01T14:46:58.265Z,15.63
2023-03-01T14:49:31.441Z,13.07
2023-03-01T14:52:06.285Z,13.27
2023-03-01T14:54:43.173Z,12.10
2023-03-01T14:57:17.909Z,13.97
2023-03-01T14:59:46.452Z,15.87
2023-03-01T15:02:20.170Z,13.13
2023-03-01T15:04:50.393Z,12.43
2023-03-01T15:07:20.601Z,13.10
2023-03-01T15:09:49.676Z,11.60
2023-03-01T15:12:37.883Z,13.77
2023-03-01T15:15:38.418Z,10.70
2023-03-01T15:18:16.738Z,8.93
2023-03-01T15:20:45.280Z,12.03
2023-03-01T15:23:25.359Z,10.57
2023-03-01T15:25:58.365Z,11.33
2023-03-01T15:28:29.317Z,12.63
2023-03-01T15:31:01.063Z,10.57
2023-03-01T15:33:35.959Z,9.00
2023-03-01T15:36:06.272Z,15.30
2023-03-01T15:38:41.520Z,18.73
2023-03-01T15:41:26.571Z,15.80
2023-03-01T15:43:56.771Z,12.50
2023-03-01T15:46:28.780Z,12.90
2023-03-01T15:48:59.628Z,9.27
2023-03-01T15:51:36.629Z,11.63
2023-03-01T15:54:12.433Z,9.83
2023-03-01T15:56:40.494Z,10.67
2023-03-01T15:59:14.372Z,13.23
2023-03-01T16:01:42.625Z,32.47
2023-03-01T16:04:13.781Z,33.37
2023-03-01T16:06:41.982Z,41.40
2023-03-01T16:09:13.601Z,24.97
2023-03-01T16:11:43.474Z,9.27
2023-03-01T16:14:11.841Z,14.90
2023-03-01T16:16:40.326Z,11.30
2023-03-01T16:19:08.418Z,11.83
2023-03-01T16:21:37.090Z,15.50
2023-03-01T16:24:05.701Z,18.53
2023-03-01T16:26:35.384Z,18.83
2023-03-01T16:29:03.476Z,11.87
2023-03-01T16:31:34.376Z,20.93
2023-03-01T16:34:03.202Z,21.07
2023-03-01T16:36:31.498Z,30.27
2023-03-01T16:39:01.621Z,45.33
2023-03-01T16:41:30.533Z,22.60
2023-03-01T16:44:00.476Z,20.10
2023-03-01T16:46:30.666Z,43.80
2023-03-01T16:48:59.304Z,41.87
2023-03-01T16:51:27.507Z,37.73
2023-03-01T16:53:55.743Z,39.83
2023-03-01T16:56:23.889Z,40.77
2023-03-01T16:58:52.398Z,30.90
2023-03-01T17:01:25.645Z,41.67
2023-03-01T17:03:54.432Z,64.13
2023-03-01T17:06:25.850Z,60.70
2023-03-01T17:08:54.380Z,46.93
2023-03-01T17:11:22.845Z,55.53
2023-03-01T17:13:51.008Z,54.83
2023-03-01T17:16:22.791Z,39.67
2023-03-01T17:18:51.212Z,29.67
2023-03-01T17:21:19.450Z,20.67
2023-03-01T17:23:50.433Z,27.23
2023-03-01T17:26:18.888Z,20.40
2023-03-01T17:28:52.453Z,22.53
2023-03-01T17:31:22.227Z,28.67
2023-03-01T17:33:50.407Z,26.17
2023-03-01T17:36:18.820Z,35.10
2023-03-01T17:38:47.429Z,29.17
2023-03-01T17:41:17.838Z,16.50
2023-03-01T17:43:46.006Z,22.60
2023-03-01T17:46:14.149Z,86.00
2023-03-01T17:48:43.747Z,29.67
2023-03-01T17:51:13.497Z,28.53
2023-03-01T17:53:41.794Z,34.83
2023-03-01T17:56:10.188Z,32.50
2023-03-01T17:58:39.453Z,22.30
2023-03-01T18:01:12.668Z,24.33
2023-03-01T18:03:40.984Z,19.30
2023-03-01T18:06:15.396Z,23.17
2023-03-01T18:08:45.237Z,33.20
2023-03-01T18:11:13.992Z,48.80
2023-03-01T18:13:42.392Z,30.13
2023-03-01T18:16:12.690Z,24.87
2023-03-01T18:18:41.263Z,34.47
2023-03-01T18:21:09.964Z,21.27
2023-03-01T18:23:40.238Z,23.07
2023-03-01T18:26:10.277Z,22.20
2023-03-01T18:28:39.441Z,57.57
2023-03-01T18:31:12.061Z,48.93
2023-03-01T18:33:41.350Z,49.27
2023-03-01T18:36:20.335Z,68.57
2023-03-01T18:38:50.025Z,61.90
2023-03-01T18:41:18.588Z,76.23
2023-03-01T18:43:46.791Z,63.83
2023-03-01T18:46:15.115Z,45.23
2023-03-01T18:48:43.321Z,45.77
2023-03-01T18:51:14.826Z,49.10
2023-03-01T18:53:43.053Z,62.57
2023-03-01T18:56:13.406Z,59.73
2023-03-01T18:58:43.712Z,68.70
2023-03-01T19:01:15.987Z,63.03
2023-03-01T19:03:44.546Z,66.13
2023-03-01T19:06:12.819Z,66.10
2023-03-01T19:08:42.378Z,61.53
2023-03-01T19:11:12.383Z,64.70
2023-03-01T19:13:41.929Z,70.07
2023-03-01T19:16:12.248Z,68.30
2023-03-01T19:18:42.227Z,63.90
2023-03-01T19:21:12.084Z,64.43
2023-03-01T19:23:40.382Z,56.40
2023-03-01T19:26:10.513Z,56.57
2023-03-01T19:28:40.836Z,57.63
2023-03-01T19:31:10.810Z,63.60
2023-03-01T19:33:40.133Z,61.67
2023-03-01T19:36:13.358Z,57.63
2023-03-01T19:38:43.077Z,51.70
2023-03-01T19:41:14.894Z,46.07
2023-03-01T19:43:47.131Z,45.27
2023-03-01T19:46:16.500Z,43.23
2023-03-01T19:48:45.608Z,41.07
2023-03-01T19:51:14.034Z,39.73
2023-03-01T19:53:42.577Z,35.37
2023-03-01T19:56:11.010Z,38.73
2023-03-01T19:58:40.299Z,45.73
2023-03-01T20:01:17.278Z,43.70
2023-03-01T20:03:45.934Z,43.47
2023-03-01T20:06:16.494Z,39.87
2023-03-01T20:08:45.408Z,40.37
2023-03-01T20:11:15.625Z,38.70
2023-03-01T20:13:44.001Z,40.07
2023-03-01T20:16:12.805Z,45.87
2023-03-01T20:18:43.112Z,58.13
2023-03-01T20:21:21.769Z,63.73
2023-03-01T20:23:52.533Z,85.07
2023-03-01T20:26:20.930Z,111.23
2023-03-01T20:28:50.799Z,75.23
2023-03-01T20:31:21.206Z,63.43
2023-03-01T20:33:51.412Z,43.77
2023-03-01T20:36:19.856Z,70.43
2023-03-01T20:38:47.908Z,47.83
2023-03-01T20:41:16.087Z,66.47
2023-03-01T20:43:44.656Z,53.63
2023-03-01T20:46:15.023Z,42.80
2023-03-01T20:48:44.006Z,28.27
2023-03-01T20:51:14.653Z,26.33
2023-03-01T20:53:42.949Z,28.37
2023-03-01T20:56:17.417Z,23.90
2023-03-01T20:58:45.495Z,31.37
2023-03-01T21:01:18.074Z,32.10
2023-03-01T21:03:46.458Z,69.77
2023-03-01T21:06:15.954Z,58.77
2023-03-01T21:08:44.225Z,51.83
2023-03-01T21:11:12.407Z,34.23
2023-03-01T21:13:41.787Z,35.93
2023-03-01T21:16:13.802Z,29.63
2023-03-01T21:18:42.942Z,34.70
2023-03-01T21:21:13.269Z,35.30
2023-03-01T21:23:44.321Z,34.97
2023-03-01T21:26:14.161Z,40.60
2023-03-01T21:28:43.892Z,37.17
2023-03-01T21:31:14.297Z,32.33
2023-03-01T21:33:45.672Z,39.57
2023-03-01T21:36:14.264Z,41.50
2023-03-01T21:38:46.341Z,50.90
2023-03-01T21:41:16.570Z,46.00
2023-03-01T21:43:47.318Z,35.87
2023-03-01T21:46:17.623Z,28.37
2023-03-01T21:48:46.921Z,43.90
2023-03-01T21:51:16.639Z,40.87
2023-03-01T21:53:46.411Z,27.03
2023-03-01T21:56:17.157Z,28.67
2023-03-01T21:58:45.512Z,26.70
2023-03-01T22:01:16.361Z,27.83
2023-03-01T22:03:48.231Z,31.43
2023-03-01T22:06:19.593Z,27.63
2023-03-01T22:08:51.704Z,31.30
2023-03-01T22:11:21.073Z,23.67
2023-03-01T22:13:52.474Z,23.80
2023-03-01T22:16:22.821Z,28.77
2023-03-01T22:18:51.437Z,27.80
2023-03-01T22:21:20.580Z,24.00
2023-03-01T22:23:50.214Z,23.37
2023-03-01T22:26:29.322Z,24.40
2023-03-01T22:28:59.248Z,30.33
2023-03-01T22:31:28.086Z,34.83
2023-03-01T22:33:57.381Z,37.33
2023-03-01T22:36:25.646Z,25.20
2023-03-01T22:39:00.049Z,26.87
2023-03-01T22:41:29.451Z,31.80
2023-03-01T22:43:57.926Z,24.40
2023-03-01T22:46:27.168Z,28.50
2023-03-01T22:48:55.910Z,24.80
2023-03-01T22:51:25.859Z,37.50
2023-03-01T22:53:55.497Z,37.40
2023-03-01T22:56:26.443Z,54.50
2023-03-01T22:58:54.552Z,73.83
2023-03-01T23:01:24.486Z,64.27
2023-03-01T23:03:52.594Z,49.70
2023-03-01T23:06:22.392Z,50.33
2023-03-01T23:08:51.815Z,69.17
2023-03-01T23:11:23.040Z,57.50
2023-03-01T23:13:51.555Z,51.67
2023-03-01T23:16:19.664Z,52.47
2023-03-01T23:18:47.724Z,51.93
2023-03-01T23:21:17.694Z,50.10
2023-03-01T23:23:47.303Z,51.20
2023-03-01T23:26:15.841Z,45.77
2023-03-01T23:28:45.583Z,57.53
2023-03-01T23:31:15.389Z,48.70
2023-03-01T23:33:45.444Z,54.50
2023-03-01T23:36:19.311Z,57.70
2023-03-01T23:38:48.523Z,63.23
2023-03-01T23:41:19.574Z,46.43
2023-03-01T23:43:51.424Z,48.83
2023-03-01T23:46:21.161Z,52.47
2023-03-01T23:48:49.877Z,45.60
2023-03-01T23:51:19.264Z,51.30
2023-03-01T23:53:54.631Z,41.23
2023-03-01T23:56:26.809Z,51.20
2023-03-01T23:58:57.853Z,48.30
